Time;durP1;ratioP1;P1;durP2;ratioP2;P2;SDS_P1;SDS_P2;PMS_P1;PMS_P2;Temp;Humidity;BMP_temperature;BMP_pressure;BME280_temperature;BME280_humidity;BME280_pressure;Samples;Min_cycle;Max_cycle;Signal;HPM_P1;HPM_P2
2022/06/07 00:01:27;;;;;;;;;;;18.00;99.90;;;;;;4971043;28;19968;-72
2022/06/07 00:03:54;;;;;;;;;;;17.90;99.90;;;;;;4972533;28;20015;-72
2022/06/07 00:06:22;;;;;;;;;;;17.90;99.90;;;;;;4956695;28;19968;-72
2022/06/07 00:08:51;;;;;;;;;;;17.90;99.90;;;;;;4957988;28;19960;-72
2022/06/07 00:11:19;;;;;;;;;;;17.90;99.90;;;;;;4958303;28;20047;-72
2022/06/07 00:13:48;;;;;;;;;;;17.90;99.90;;;;;;4956355;28;20059;-72
2022/06/07 00:16:16;;;;;;;;;;;17.70;99.90;;;;;;4954431;28;19996;-72
2022/06/07 00:18:45;;;;;;;;;;;17.70;99.90;;;;;;4962063;28;19968;-73
2022/06/07 00:21:13;;;;;;;;;;;17.70;99.90;;;;;;4964978;28;19960;-72
2022/06/07 00:23:41;;;;;;;;;;;17.70;99.90;;;;;;4953659;28;19971;-72
2022/06/07 00:26:09;;;;;;;;;;;17.70;99.90;;;;;;4954055;28;19968;-70
2022/06/07 00:28:37;;;;;;;;;;;17.70;99.90;;;;;;4954620;28;19964;-72
2022/06/07 00:31:06;;;;;;;;;;;17.60;99.90;;;;;;4954358;28;19965;-72
2022/06/07 00:33:34;;;;;;;;;;;17.60;99.90;;;;;;4953402;28;19970;-70
2022/06/07 00:36:02;;;;;;;;;;;17.60;99.90;;;;;;4960061;28;19960;-70
2022/06/07 00:38:30;;;;;;;;;;;17.60;99.90;;;;;;4971995;28;19968;-72
2022/06/07 00:40:58;;;;;;;;;;;17.60;99.90;;;;;;4956495;28;19968;-71
2022/06/07 00:43:26;;;;;;;;;;;17.60;99.90;;;;;;4953292;28;19965;-70
2022/06/07 00:45:54;;;;;;;;;;;17.60;99.90;;;;;;4954184;28;20022;-71
2022/06/07 00:48:23;;;;;;;;;;;17.70;99.90;;;;;;4957681;28;20402;-71
2022/06/07 00:50:55;;;;;;;;;;;17.70;99.90;;;;;;4970384;28;19968;-71
2022/06/07 00:53:24;;;;;;;;;;;17.70;99.90;;;;;;4970252;28;20328;-72
2022/06/07 00:55:52;;;;;;;;;;;17.80;99.90;;;;;;4966922;28;19997;-71
2022/06/07 00:58:21;;;;;;;;;;;17.80;99.90;;;;;;4953814;28;20015;-71
2022/06/07 01:00:48;;;;;;;;;;;17.80;99.90;;;;;;4953798;28;20007;-72
2022/06/07 01:03:18;;;;;;;;;;;17.70;99.90;;;;;;4953227;28;19965;-69
2022/06/07 01:05:47;;;;;;;;;;;17.60;99.90;;;;;;4953635;28;20062;-71
2022/06/07 01:11:00;;;;;;;;;;;17.70;99.90;;;;;;4965646;28;19964;-71
2022/06/07 01:13:32;;;;;;;;;;;17.70;99.90;;;;;;4963419;28;19965;-70
2022/06/07 01:16:01;;;;;;;;;;;17.80;99.90;;;;;;4955639;28;20379;-71
2022/06/07 01:18:29;;;;;;;;;;;17.60;99.90;;;;;;4957946;28;19964;-71
2022/06/07 01:21:14;;;;;;;;;;;17.60;99.90;;;;;;4968577;28;20013;-72
2022/06/07 01:23:43;;;;;;;;;;;17.60;99.90;;;;;;4952803;28;19968;-71
2022/06/07 01:26:12;;;;;;;;;;;17.60;99.90;;;;;;4953475;28;19968;-72
2022/06/07 01:28:40;;;;;;;;;;;17.60;99.90;;;;;;4954301;28;20024;-71
2022/06/07 01:31:08;;;;;;;;;;;17.70;99.90;;;;;;4963966;28;19964;-72
2022/06/07 01:33:36;;;;;;;;;;;17.80;99.90;;;;;;4970862;28;19968;-72
2022/06/07 01:36:05;;;;;;;;;;;17.80;99.90;;;;;;4963534;28;20010;-72
2022/06/07 01:38:34;;;;;;;;;;;17.90;99.90;;;;;;4953249;28;20494;-72
2022/06/07 01:43:48;;;;;;;;;;;17.70;99.90;;;;;;4956526;28;20416;-72
2022/06/07 01:46:16;;;;;;;;;;;17.70;99.90;;;;;;4953666;28;20010;-72
2022/06/07 01:48:46;;;;;;;;;;;17.70;99.90;;;;;;4971766;28;20413;-72
2022/06/07 01:51:14;;;;;;;;;;;17.80;99.90;;;;;;4973403;28;19986;-72
2022/06/07 01:53:43;;;;;;;;;;;17.80;99.90;;;;;;4951966;28;19969;-71
2022/06/07 01:56:12;;;;;;;;;;;17.90;99.90;;;;;;4952953;28;19987;-70
2022/06/07 01:58:41;;;;;;;;;;;17.90;99.90;;;;;;4953162;28;20411;-71
2022/06/07 02:01:10;;;;;;;;;;;17.70;99.90;;;;;;4953039;28;19999;-71
2022/06/07 02:03:38;;;;;;;;;;;17.80;99.90;;;;;;4952581;28;20020;-70
2022/06/07 02:06:07;;;;;;;;;;;17.80;99.90;;;;;;4953453;28;20071;-71
2022/06/07 02:08:36;;;;;;;;;;;17.70;99.90;;;;;;4954027;28;19996;-68
2022/06/07 02:11:09;;;;;;;;;;;17.70;99.90;;;;;;4953076;28;20043;-71
2022/06/07 02:13:37;;;;;;;;;;;17.70;99.90;;;;;;4952023;28;20026;-71
2022/06/07 02:16:05;;;;;;;;;;;17.80;99.90;;;;;;4952810;28;20381;-71
2022/06/07 02:18:34;;;;;;;;;;;17.80;99.90;;;;;;4957540;28;20425;-71
2022/06/07 02:21:01;;;;;;;;;;;17.70;99.90;;;;;;4970879;28;19999;-72
2022/06/07 02:23:30;;;;;;;;;;;17.60;99.90;;;;;;4955755;28;19971;-72
2022/06/07 02:26:00;;;;;;;;;;;17.60;99.90;;;;;;4963199;28;20429;-71
2022/06/07 02:28:30;;;;;;;;;;;17.60;99.90;;;;;;4956486;28;20004;-73
2022/06/07 02:30:59;;;;;;;;;;;17.70;99.90;;;;;;4956576;28;19968;-73
2022/06/07 02:33:27;;;;;;;;;;;17.70;99.90;;;;;;4955818;28;20502;-71
2022/06/07 02:35:55;;;;;;;;;;;17.70;99.90;;;;;;4960879;28;19999;-71
2022/06/07 02:38:23;;;;;;;;;;;17.70;99.90;;;;;;4965632;28;19968;-71
2022/06/07 02:40:52;;;;;;;;;;;17.60;99.90;;;;;;4975099;28;20097;-71
2022/06/07 02:43:20;;;;;;;;;;;17.60;99.90;;;;;;4974166;28;20083;-72
2022/06/07 02:45:49;;;;;;;;;;;17.40;99.90;;;;;;4960485;28;19996;-72
2022/06/07 02:48:17;;;;;;;;;;;17.40;99.90;;;;;;4961700;28;19979;-71
2022/06/07 02:50:45;;;;;;;;;;;17.50;99.90;;;;;;4974111;28;19969;-71
2022/06/07 02:53:13;;;;;;;;;;;17.50;99.90;;;;;;4962644;28;20477;-72
2022/06/07 02:55:41;;;;;;;;;;;17.40;99.90;;;;;;4987942;23;20018;-62
2022/06/07 02:58:09;;;;;;;;;;;17.30;99.90;;;;;;5002104;28;19964;-62
2022/06/07 03:00:36;;;;;;;;;;;17.30;99.90;;;;;;4994425;28;20003;-62
2022/06/07 03:03:06;;;;;;;;;;;17.40;99.90;;;;;;4993891;28;20344;-62
2022/06/07 03:05:34;;;;;;;;;;;17.40;99.90;;;;;;4985163;28;20454;-62
2022/06/07 03:08:01;;;;;;;;;;;17.30;99.90;;;;;;4974924;28;19995;-62
2022/06/07 03:10:29;;;;;;;;;;;17.30;99.90;;;;;;4974886;28;20058;-62
2022/06/07 03:12:57;;;;;;;;;;;17.30;99.90;;;;;;4977604;28;20080;-62
2022/06/07 03:15:25;;;;;;;;;;;17.20;99.90;;;;;;4970031;28;20508;-62
2022/06/07 03:17:52;;;;;;;;;;;17.20;99.90;;;;;;4974687;28;20075;-63
2022/06/07 03:20:22;;;;;;;;;;;17.10;99.90;;;;;;4973919;28;20446;-62
2022/06/07 03:22:49;;;;;;;;;;;17.00;99.90;;;;;;4974024;28;19968;-62
2022/06/07 03:25:17;;;;;;;;;;;17.00;99.90;;;;;;4977588;28;19972;-62
2022/06/07 03:27:45;;;;;;;;;;;16.90;99.90;;;;;;4977856;28;19974;-62
2022/06/07 03:30:13;;;;;;;;;;;16.90;99.90;;;;;;4974282;28;20460;-62
2022/06/07 03:32:42;;;;;;;;;;;17.00;99.90;;;;;;4973222;28;20015;-62
2022/06/07 03:35:10;;;;;;;;;;;17.10;99.90;;;;;;4973537;28;19968;-63
2022/06/07 03:37:40;;;;;;;;;;;17.10;99.90;;;;;;4974411;28;20383;-62
2022/06/07 03:40:08;;;;;;;;;;;17.20;99.90;;;;;;4974327;28;20019;-62
2022/06/07 03:42:36;;;;;;;;;;;17.20;99.90;;;;;;4973738;28;19964;-62
2022/06/07 03:45:04;;;;;;;;;;;17.20;99.90;;;;;;4974020;28;20022;-61
2022/06/07 03:47:32;;;;;;;;;;;17.20;99.90;;;;;;4974160;28;19999;-61
2022/06/07 03:50:00;;;;;;;;;;;17.20;99.90;;;;;;4973569;28;20011;-61
2022/06/07 03:52:28;;;;;;;;;;;17.30;99.90;;;;;;4975164;28;20003;-61
2022/06/07 03:54:57;;;;;;;;;;;17.20;99.90;;;;;;4975459;28;19968;-60
2022/06/07 03:57:25;;;;;;;;;;;17.10;99.90;;;;;;4992593;28;20006;-60
2022/06/07 03:59:52;;;;;;;;;;;17.20;99.90;;;;;;4988044;28;19967;-62
2022/06/07 04:02:20;;;;;;;;;;;17.10;99.90;;;;;;4973287;28;19968;-62
2022/06/07 04:04:48;;;;;;;;;;;17.00;99.90;;;;;;4974436;28;19961;-62
2022/06/07 04:10:03;;;;;;;;;;;17.00;99.90;;;;;;4992559;28;20495;-62
2022/06/07 04:12:30;;;;;;;;;;;17.10;99.90;;;;;;4988855;28;19995;-61
2022/06/07 04:14:58;;;;;;;;;;;17.00;99.90;;;;;;4989918;28;19986;-62
2022/06/07 04:17:26;;;;;;;;;;;17.00;99.90;;;;;;4985039;28;19979;-61
2022/06/07 04:19:54;;;;;;;;;;;17.10;99.90;;;;;;4975179;28;19999;-61
2022/06/07 04:22:21;;;;;;;;;;;17.00;99.90;;;;;;4966401;28;20094;-61
2022/06/07 04:24:49;;;;;;;;;;;17.00;99.90;;;;;;4952272;28;20015;-61
2022/06/07 04:27:18;;;;;;;;;;;17.10;99.90;;;;;;4955830;28;19968;-61
2022/06/07 04:29:46;;;;;;;;;;;17.10;99.90;;;;;;4957594;28;19972;-61
2022/06/07 04:32:16;;;;;;;;;;;16.90;99.90;;;;;;4955722;28;20003;-61
2022/06/07 04:34:44;;;;;;;;;;;17.00;99.90;;;;;;4950085;28;20114;-61
2022/06/07 04:37:12;;;;;;;;;;;16.90;99.90;;;;;;4954751;28;19968;-61
2022/06/07 04:39:39;;;;;;;;;;;17.00;99.90;;;;;;4953016;28;20430;-61
2022/06/07 04:42:07;;;;;;;;;;;16.80;99.90;;;;;;4953621;28;19999;-61
2022/06/07 04:44:36;;;;;;;;;;;16.80;99.90;;;;;;4949339;28;20003;-61
2022/06/07 04:47:04;;;;;;;;;;;16.80;99.90;;;;;;4957404;28;20426;-61
2022/06/07 04:49:32;;;;;;;;;;;16.80;99.90;;;;;;4956224;28;20163;-61
2022/06/07 04:52:00;;;;;;;;;;;16.90;99.90;;;;;;4955822;28;20085;-61
2022/06/07 04:54:47;;;;;;;;;;;16.80;99.90;;;;;;4948474;28;19972;-62
2022/06/07 04:57:15;;;;;;;;;;;16.70;99.90;;;;;;4952147;28;19978;-62
2022/06/07 04:59:44;;;;;;;;;;;16.70;99.90;;;;;;4955669;28;19972;-61
2022/06/07 05:02:12;;;;;;;;;;;16.70;99.90;;;;;;4953444;28;19968;-61
2022/06/07 05:04:40;;;;;;;;;;;16.60;99.90;;;;;;4951219;28;19968;-61
2022/06/07 05:07:08;;;;;;;;;;;16.80;99.90;;;;;;4949185;28;20015;-61
2022/06/07 05:09:35;;;;;;;;;;;16.80;99.90;;;;;;4956243;28;19968;-61
2022/06/07 05:12:04;;;;;;;;;;;16.80;99.90;;;;;;4954878;28;20066;-61
2022/06/07 05:14:31;;;;;;;;;;;16.70;99.90;;;;;;4954508;28;20004;-61
2022/06/07 05:17:00;;;;;;;;;;;16.80;99.90;;;;;;4954985;28;19975;-61
2022/06/07 05:19:29;;;;;;;;;;;17.00;99.90;;;;;;4957687;28;19995;-61
2022/06/07 05:21:56;;;;;;;;;;;17.10;99.90;;;;;;4954647;28;20015;-61
2022/06/07 05:24:24;;;;;;;;;;;17.50;99.90;;;;;;4951461;28;20005;-62
2022/06/07 05:26:52;;;;;;;;;;;17.70;99.90;;;;;;4958809;28;20050;-61
2022/06/07 05:29:25;;;;;;;;;;;17.70;99.90;;;;;;4969627;28;20055;-62
2022/06/07 05:31:53;;;;;;;;;;;17.60;99.90;;;;;;4974260;28;20087;-62
2022/06/07 05:34:22;;;;;;;;;;;17.40;99.90;;;;;;4986490;28;19970;-62
2022/06/07 05:36:50;;;;;;;;;;;17.50;99.90;;;;;;4973239;28;19960;-62
2022/06/07 05:39:20;;;;;;;;;;;17.50;99.90;;;;;;4982003;28;19999;-63
2022/06/07 05:41:48;;;;;;;;;;;17.70;99.90;;;;;;4972459;28;19991;-64
2022/06/07 05:44:16;;;;;;;;;;;17.70;99.90;;;;;;4970736;28;20007;-65
2022/06/07 05:46:44;;;;;;;;;;;17.60;99.90;;;;;;4968812;28;20114;-63
2022/06/07 05:49:12;;;;;;;;;;;17.30;99.90;;;;;;4974667;28;20052;-63
2022/06/07 05:51:41;;;;;;;;;;;17.30;99.90;;;;;;4979737;28;19996;-63
2022/06/07 05:54:10;;;;;;;;;;;17.30;99.90;;;;;;4990080;28;20835;-63
2022/06/07 05:56:38;;;;;;;;;;;17.10;99.90;;;;;;4990118;28;20046;-63
2022/06/07 05:59:06;;;;;;;;;;;17.00;99.90;;;;;;4984001;28;20010;-63
2022/06/07 06:01:34;;;;;;;;;;;17.10;99.90;;;;;;4990980;28;20409;-64
2022/06/07 06:04:03;;;;;;;;;;;17.20;99.90;;;;;;4990085;28;20019;-64
2022/06/07 06:06:31;;;;;;;;;;;17.20;99.90;;;;;;4990442;28;19964;-63
2022/06/07 06:11:45;;;;;;;;;;;17.20;99.90;;;;;;4991421;28;20046;-64
2022/06/07 06:14:13;;;;;;;;;;;17.30;99.90;;;;;;4983270;28;19960;-64
2022/06/07 06:16:41;;;;;;;;;;;17.50;99.90;;;;;;4971924;28;19964;-64
2022/06/07 06:19:09;;;;;;;;;;;17.60;99.90;;;;;;4971857;28;19967;-64
2022/06/07 06:21:38;;;;;;;;;;;17.90;99.90;;;;;;4981054;28;20387;-63
2022/06/07 06:24:09;;;;;;;;;;;18.10;99.90;;;;;;4989994;28;20066;-64
2022/06/07 06:26:38;;;;;;;;;;;18.30;99.90;;;;;;4990244;28;19999;-65
2022/06/07 06:29:08;;;;;;;;;;;18.50;99.90;;;;;;4987517;28;19967;-63
2022/06/07 06:31:35;;;;;;;;;;;18.50;99.90;;;;;;4978487;28;19991;-64
2022/06/07 06:34:04;;;;;;;;;;;18.70;99.90;;;;;;4970890;28;20019;-64
2022/06/07 06:36:31;;;;;;;;;;;18.90;99.90;;;;;;4971734;28;19969;-64
2022/06/07 06:38:59;;;;;;;;;;;18.90;99.90;;;;;;4978149;28;20445;-64
2022/06/07 06:41:29;;;;;;;;;;;18.80;99.90;;;;;;4990557;28;20046;-63
2022/06/07 06:43:58;;;;;;;;;;;18.60;99.90;;;;;;4989688;28;19968;-64
2022/06/07 06:46:27;;;;;;;;;;;18.40;99.90;;;;;;4990490;28;20021;-63
2022/06/07 06:48:55;;;;;;;;;;;18.40;99.90;;;;;;4982263;28;19968;-63
2022/06/07 06:51:23;;;;;;;;;;;18.40;99.90;;;;;;4988341;28;20425;-64
2022/06/07 06:53:52;;;;;;;;;;;18.50;99.90;;;;;;4975031;28;19968;-64
2022/06/07 06:56:21;;;;;;;;;;;18.80;99.90;;;;;;4971417;28;20067;-64
2022/06/07 06:58:52;;;;;;;;;;;19.10;99.90;;;;;;4970819;28;20018;-64
2022/06/07 07:01:22;;;;;;;;;;;19.30;99.90;;;;;;4970698;28;20473;-64
2022/06/07 07:03:50;;;;;;;;;;;19.50;99.90;;;;;;4964414;28;20356;-63
2022/06/07 07:06:18;;;;;;;;;;;19.60;99.90;;;;;;4971106;28;20067;-64
2022/06/07 07:08:47;;;;;;;;;;;19.70;99.90;;;;;;4973930;28;19964;-63
2022/06/07 07:11:15;;;;;;;;;;;19.80;99.90;;;;;;4974743;28;19968;-63
2022/06/07 07:13:43;;;;;;;;;;;20.00;99.90;;;;;;4971365;28;20194;-64
2022/06/07 07:16:14;;;;;;;;;;;20.10;99.90;;;;;;4966401;28;19983;-64
2022/06/07 07:18:42;;;;;;;;;;;20.10;99.90;;;;;;4972617;28;20059;-64
2022/06/07 07:21:12;;;;;;;;;;;20.20;99.90;;;;;;4969731;28;20445;-63
2022/06/07 07:23:40;;;;;;;;;;;20.20;99.90;;;;;;4970749;28;20066;-63
2022/06/07 07:26:09;;;;;;;;;;;20.30;99.90;;;;;;4970626;28;20480;-62
2022/06/07 07:28:38;;;;;;;;;;;20.40;99.90;;;;;;4958607;28;20087;-63
2022/06/07 07:31:08;;;;;;;;;;;20.50;99.90;;;;;;4958153;28;20062;-62
2022/06/07 07:33:39;;;;;;;;;;;20.70;99.90;;;;;;4955451;28;20034;-62
2022/06/07 07:36:07;;;;;;;;;;;20.80;99.90;;;;;;4959014;28;20099;-62
2022/06/07 07:38:35;;;;;;;;;;;20.90;99.90;;;;;;4956054;28;19999;-62
2022/06/07 07:41:03;;;;;;;;;;;21.00;99.90;;;;;;4958702;28;20087;-62
2022/06/07 07:43:31;;;;;;;;;;;21.10;99.90;;;;;;4954007;28;19974;-63
2022/06/07 07:45:59;;;;;;;;;;;21.20;99.90;;;;;;4956200;28;19969;-62
2022/06/07 07:48:26;;;;;;;;;;;21.20;99.90;;;;;;4957743;28;20504;-64
2022/06/07 07:50:55;;;;;;;;;;;21.30;99.90;;;;;;4958858;28;20011;-63
2022/06/07 07:53:23;;;;;;;;;;;21.20;99.90;;;;;;4975593;28;20010;-63
2022/06/07 07:55:51;;;;;;;;;;;21.30;99.90;;;;;;4972359;28;20055;-63
2022/06/07 07:58:20;;;;;;;;;;;21.50;99.90;;;;;;4970214;28;19964;-63
2022/06/07 08:00:48;;;;;;;;;;;21.60;99.90;;;;;;4972108;28;20348;-63
2022/06/07 08:03:16;;;;;;;;;;;21.70;99.90;;;;;;4969651;28;20369;-64
2022/06/07 08:05:45;;;;;;;;;;;22.00;99.90;;;;;;4973180;28;20463;-64
2022/06/07 08:08:14;;;;;;;;;;;22.10;99.20;;;;;;4971524;28;19992;-64
2022/06/07 08:10:41;;;;;;;;;;;22.20;98.20;;;;;;4973562;28;20438;-64
2022/06/07 08:13:09;;;;;;;;;;;22.20;98.90;;;;;;4970395;28;20029;-64
2022/06/07 08:15:37;;;;;;;;;;;22.30;97.20;;;;;;4971656;28;20137;-63
2022/06/07 08:18:05;;;;;;;;;;;22.40;96.90;;;;;;4969650;28;19968;-63
2022/06/07 08:20:35;;;;;;;;;;;22.70;97.40;;;;;;4973606;28;20051;-63
2022/06/07 08:23:03;;;;;;;;;;;22.80;96.20;;;;;;4974112;28;20430;-63
2022/06/07 08:25:33;;;;;;;;;;;22.90;96.20;;;;;;4972088;28;19968;-63
2022/06/07 08:28:02;;;;;;;;;;;23.10;96.10;;;;;;4968148;28;20059;-62
2022/06/07 08:30:30;;;;;;;;;;;23.20;95.50;;;;;;4960478;28;20003;-62
2022/06/07 08:32:57;;;;;;;;;;;23.30;95.50;;;;;;4952032;28;21992;-63
2022/06/07 08:38:11;;;;;;;;;;;23.40;93.80;;;;;;4954494;28;20517;-63
2022/06/07 08:40:43;;;;;;;;;;;23.70;94.00;;;;;;4949599;28;21783;-62
2022/06/07 08:43:14;;;;;;;;;;;23.80;93.00;;;;;;4953183;28;20026;-63
2022/06/07 08:45:43;;;;;;;;;;;23.80;93.60;;;;;;4958060;28;20074;-63
2022/06/07 08:48:12;;;;;;;;;;;23.80;93.50;;;;;;4952243;28;20885;-63
2022/06/07 08:50:41;;;;;;;;;;;23.80;94.00;;;;;;4953427;28;20437;-62
2022/06/07 08:53:13;;;;;;;;;;;23.90;94.50;;;;;;4951415;28;20055;-62
2022/06/07 08:55:45;;;;;;;;;;;24.40;94.80;;;;;;4954479;28;20397;-63
2022/06/07 08:58:15;;;;;;;;;;;24.70;93.10;;;;;;4961028;28;20051;-63
2022/06/07 09:00:45;;;;;;;;;;;24.60;93.60;;;;;;4965460;28;19960;-63
2022/06/07 09:03:21;;;;;;;;;;;24.70;93.20;;;;;;4955554;28;20055;-63
2022/06/07 09:05:56;;;;;;;;;;;24.60;93.50;;;;;;4950354;28;20926;-63
2022/06/07 09:08:24;;;;;;;;;;;24.60;93.50;;;;;;4952157;28;20035;-63
2022/06/07 09:13:47;;;;;;;;;;;25.00;93.10;;;;;;4950983;28;20058;-66
2022/06/07 09:16:15;;;;;;;;;;;25.10;92.50;;;;;;4955879;28;20393;-67
2022/06/07 09:18:45;;;;;;;;;;;25.30;91.80;;;;;;4952446;28;19995;-67
2022/06/07 09:21:20;;;;;;;;;;;25.70;92.50;;;;;;4952061;28;19964;-70
2022/06/07 09:23:49;;;;;;;;;;;26.00;91.40;;;;;;4953043;28;19968;-70
2022/06/07 09:26:24;;;;;;;;;;;25.40;92.20;;;;;;4955537;28;19960;-70
2022/06/07 09:29:03;;;;;;;;;;;25.20;92.20;;;;;;4951853;28;20422;-70
2022/06/07 09:31:31;;;;;;;;;;;25.30;92.50;;;;;;4958562;28;20767;-70
2022/06/07 09:34:04;;;;;;;;;;;25.60;92.50;;;;;;4951083;28;19960;-70
2022/06/07 09:36:33;;;;;;;;;;;26.00;92.50;;;;;;4952749;29;20016;-70
2022/06/07 09:39:03;;;;;;;;;;;25.50;91.80;;;;;;4955375;28;20521;-70
2022/06/07 09:41:37;;;;;;;;;;;25.10;91.90;;;;;;4951572;28;19965;-71
2022/06/07 09:44:06;;;;;;;;;;;24.70;91.50;;;;;;4947477;28;19999;-69
2022/06/07 09:46:35;;;;;;;;;;;25.10;91.20;;;;;;4948770;29;19965;-69
2022/06/07 09:49:04;;;;;;;;;;;25.20;91.10;;;;;;4947392;28;19967;-69
2022/06/07 09:51:38;;;;;;;;;;;25.60;91.20;;;;;;4960177;28;20437;-70
2022/06/07 09:54:14;;;;;;;;;;;25.90;89.70;;;;;;4952333;28;20486;-69
2022/06/07 09:56:48;;;;;;;;;;;26.20;90.50;;;;;;4950043;29;20385;-70
2022/06/07 09:59:21;;;;;;;;;;;26.60;90.30;;;;;;4952958;28;20010;-71
2022/06/07 10:01:52;;;;;;;;;;;26.60;88.40;;;;;;4954209;28;20012;-70
2022/06/07 10:04:24;;;;;;;;;;;26.40;87.10;;;;;;4952016;28;20003;-69
2022/06/07 10:06:55;;;;;;;;;;;26.20;88.00;;;;;;4952923;28;20027;-70
2022/06/07 10:09:28;;;;;;;;;;;25.90;88.50;;;;;;4957971;28;20020;-70
2022/06/07 10:12:02;;;;;;;;;;;25.50;89.60;;;;;;4950204;28;20024;-70
2022/06/07 10:14:36;;;;;;;;;;;25.00;91.10;;;;;;4953770;28;19965;-70
2022/06/07 10:17:30;;;;;;;;;;;24.80;91.00;;;;;;4951128;28;20054;-69
2022/06/07 10:20:02;;;;;;;;;;;24.60;91.50;;;;;;4954396;28;20015;-70
2022/06/07 10:22:37;;;;;;;;;;;24.70;91.30;;;;;;4957676;28;19964;-71
2022/06/07 10:25:10;;;;;;;;;;;24.80;91.30;;;;;;4951996;28;19983;-70
2022/06/07 10:27:43;;;;;;;;;;;24.90;91.40;;;;;;4952889;28;20446;-70
2022/06/07 10:30:17;;;;;;;;;;;24.70;91.60;;;;;;4956103;28;20495;-70
2022/06/07 10:32:55;;;;;;;;;;;24.90;91.70;;;;;;4951884;28;20012;-70
2022/06/07 10:35:28;;;;;;;;;;;25.10;92.20;;;;;;4952394;28;20055;-72
2022/06/07 10:38:03;;;;;;;;;;;24.90;92.10;;;;;;4953668;28;19969;-70
2022/06/07 10:40:36;;;;;;;;;;;24.20;92.10;;;;;;4954862;28;20380;-70
2022/06/07 10:43:09;;;;;;;;;;;24.20;93.20;;;;;;4953108;28;19991;-70
2022/06/07 10:45:38;;;;;;;;;;;24.10;93.00;;;;;;4955673;28;20000;-70
2022/06/07 10:48:08;;;;;;;;;;;24.00;93.00;;;;;;4956252;28;20469;-71
2022/06/07 10:50:38;;;;;;;;;;;24.30;93.60;;;;;;4960354;28;20024;-70
2022/06/07 10:53:09;;;;;;;;;;;24.60;92.30;;;;;;4953759;28;19972;-70
2022/06/07 10:55:39;;;;;;;;;;;25.00;91.70;;;;;;4955077;28;20055;-70
2022/06/07 10:58:25;;;;;;;;;;;25.10;92.00;;;;;;4953987;28;20498;-69
2022/06/07 11:00:56;;;;;;;;;;;25.00;90.30;;;;;;4956448;28;19990;-70
2022/06/07 11:03:27;;;;;;;;;;;25.10;90.70;;;;;;4957377;28;19964;-70
2022/06/07 11:11:33;;;;;;;;;;;25.70;91.00;;;;;;4955253;28;19993;-67
2022/06/07 11:14:10;;;;;;;;;;;25.40;90.60;;;;;;4952958;28;19999;-69
2022/06/07 11:16:43;;;;;;;;;;;25.50;90.90;;;;;;4959426;28;20399;-70
2022/06/07 11:19:11;;;;;;;;;;;25.70;91.20;;;;;;4950034;28;20024;-70
2022/06/07 11:21:42;;;;;;;;;;;25.80;91.30;;;;;;4946558;28;20011;-70
2022/06/07 11:24:18;;;;;;;;;;;25.60;91.00;;;;;;4949793;29;19960;-70
2022/06/07 11:27:03;;;;;;;;;;;25.60;91.20;;;;;;4951141;29;19996;-70
2022/06/07 11:29:32;;;;;;;;;;;25.30;90.20;;;;;;4950878;29;19960;-70
2022/06/07 11:32:02;;;;;;;;;;;25.10;91.00;;;;;;4958207;28;19968;-68
2022/06/07 11:34:31;;;;;;;;;;;24.70;90.80;;;;;;4958712;28;20513;-70
2022/06/07 11:37:02;;;;;;;;;;;24.60;91.80;;;;;;4953515;28;19968;-69
2022/06/07 11:39:32;;;;;;;;;;;24.20;92.90;;;;;;4960417;28;19960;-70
2022/06/07 11:42:14;;;;;;;;;;;24.10;93.60;;;;;;4953872;29;20391;-69
2022/06/07 11:44:59;;;;;;;;;;;24.00;93.50;;;;;;4950888;28;20469;-69
2022/06/07 11:47:54;;;;;;;;;;;24.00;93.60;;;;;;4955409;28;20003;-70
2022/06/07 11:50:28;;;;;;;;;;;24.00;93.90;;;;;;4959441;28;19964;-70
2022/06/07 11:52:58;;;;;;;;;;;23.90;93.30;;;;;;4953692;28;20067;-70
2022/06/07 11:55:30;;;;;;;;;;;24.00;92.50;;;;;;4956158;28;20012;-68
2022/06/07 11:58:07;;;;;;;;;;;24.00;92.00;;;;;;4953280;28;20430;-70
2022/06/07 12:00:40;;;;;;;;;;;24.20;92.60;;;;;;4954682;28;19964;-70
2022/06/07 12:03:24;;;;;;;;;;;24.50;92.10;;;;;;4954181;28;20438;-70
2022/06/07 12:05:54;;;;;;;;;;;24.60;91.70;;;;;;4956735;28;20014;-70
2022/06/07 12:08:24;;;;;;;;;;;24.80;91.80;;;;;;4949898;29;20393;-70
2022/06/07 12:11:00;;;;;;;;;;;24.90;92.30;;;;;;4958577;28;19964;-70
2022/06/07 12:16:22;;;;;;;;;;;25.30;92.50;;;;;;4957140;28;20000;-70
2022/06/07 12:18:53;;;;;;;;;;;25.70;91.70;;;;;;4950270;28;20054;-70
2022/06/07 12:21:21;;;;;;;;;;;26.10;90.40;;;;;;4949544;28;20442;-71
2022/06/07 12:23:50;;;;;;;;;;;26.40;90.60;;;;;;4952404;28;19992;-70
2022/06/07 12:26:20;;;;;;;;;;;26.30;89.40;;;;;;4960352;28;20694;-69
2022/06/07 12:28:52;;;;;;;;;;;26.10;88.90;;;;;;4952720;28;20004;-70
2022/06/07 12:31:23;;;;;;;;;;;25.90;89.70;;;;;;4953540;29;20454;-70
2022/06/07 12:33:53;;;;;;;;;;;25.60;90.60;;;;;;4951657;28;20477;-69
2022/06/07 12:36:23;;;;;;;;;;;25.10;90.70;;;;;;4952701;28;19968;-70
2022/06/07 12:38:51;;;;;;;;;;;24.80;91.20;;;;;;4953874;29;20576;-70
2022/06/07 12:41:27;;;;;;;;;;;24.70;91.60;;;;;;4951938;28;19969;-70
2022/06/07 12:43:56;;;;;;;;;;;24.70;91.20;;;;;;4950415;28;19992;-70
2022/06/07 12:46:25;;;;;;;;;;;24.60;91.10;;;;;;4953228;28;20023;-71
2022/06/07 12:48:56;;;;;;;;;;;24.50;91.30;;;;;;4954936;28;19965;-70
2022/06/07 12:51:28;;;;;;;;;;;24.40;91.90;;;;;;4957778;28;19994;-70
2022/06/07 12:53:59;;;;;;;;;;;24.20;92.10;;;;;;4953844;28;19991;-68
2022/06/07 12:56:28;;;;;;;;;;;24.10;92.60;;;;;;4952442;28;20012;-69
2022/06/07 12:58:57;;;;;;;;;;;23.90;92.90;;;;;;4954342;28;20446;-70
2022/06/07 13:01:27;;;;;;;;;;;24.00;93.20;;;;;;4951766;28;19964;-70
2022/06/07 13:03:57;;;;;;;;;;;23.80;93.30;;;;;;4954457;28;19972;-70
2022/06/07 13:06:25;;;;;;;;;;;23.90;93.80;;;;;;4953095;28;20027;-69
2022/06/07 13:08:57;;;;;;;;;;;23.80;93.30;;;;;;4955069;28;20021;-70
2022/06/07 13:11:25;;;;;;;;;;;23.70;93.70;;;;;;4952691;28;20007;-70
2022/06/07 13:13:54;;;;;;;;;;;23.80;93.40;;;;;;4952985;28;20047;-70
2022/06/07 13:16:33;;;;;;;;;;;24.10;93.70;;;;;;4931015;28;20337;-70
2022/06/07 13:19:04;;;;;;;;;;;24.50;93.10;;;;;;4958375;28;19960;-70
2022/06/07 13:21:33;;;;;;;;;;;25.20;92.70;;;;;;4956710;28;19964;-69
2022/06/07 13:24:02;;;;;;;;;;;25.70;91.80;;;;;;4951138;28;19961;-70
2022/06/07 13:26:31;;;;;;;;;;;25.80;91.50;;;;;;4952290;28;20012;-70
2022/06/07 13:29:09;;;;;;;;;;;25.50;91.90;;;;;;4954349;28;20405;-69
2022/06/07 13:31:45;;;;;;;;;;;25.40;91.90;;;;;;4953662;28;19965;-70
2022/06/07 13:34:19;;;;;;;;;;;25.80;91.60;;;;;;4953533;28;20327;-71
2022/06/07 13:36:49;;;;;;;;;;;26.00;92.10;;;;;;4953680;28;19999;-70
2022/06/07 13:39:21;;;;;;;;;;;25.80;91.80;;;;;;4935156;28;20334;-70
2022/06/07 13:41:51;;;;;;;;;;;26.20;92.20;;;;;;4952007;28;20379;-69
2022/06/07 13:44:24;;;;;;;;;;;26.40;91.30;;;;;;4953466;28;20584;-69
2022/06/07 13:46:54;;;;;;;;;;;26.30;91.20;;;;;;4950626;28;20106;-70
2022/06/07 13:55:13;;;;;;;;;;;25.90;91.40;;;;;;4928898;28;19967;-70
2022/06/07 13:57:41;;;;;;;;;;;25.80;91.60;;;;;;4953022;29;20008;-71
2022/06/07 14:00:09;;;;;;;;;;;25.80;91.90;;;;;;4952196;28;20028;-70
2022/06/07 14:02:38;;;;;;;;;;;26.00;92.00;;;;;;4951206;29;20063;-71
2022/06/07 14:05:12;;;;;;;;;;;26.00;91.50;;;;;;4949754;28;20393;-71
2022/06/07 14:07:40;;;;;;;;;;;26.60;92.10;;;;;;4952528;29;20009;-70
2022/06/07 14:10:10;;;;;;;;;;;27.40;91.10;;;;;;4953459;28;20008;-71
2022/06/07 14:12:38;;;;;;;;;;;27.40;91.50;;;;;;4951637;29;19969;-71
2022/06/07 14:15:06;;;;;;;;;;;27.40;91.50;;;;;;4952107;28;19965;-70
2022/06/07 14:17:34;;;;;;;;;;;27.30;92.40;;;;;;4957504;28;20000;-68
2022/06/07 14:20:02;;;;;;;;;;;27.10;91.60;;;;;;4958574;28;19960;-71
2022/06/07 14:22:33;;;;;;;;;;;27.50;91.50;;;;;;4961067;28;19968;-70
2022/06/07 14:25:02;;;;;;;;;;;27.70;91.20;;;;;;4956888;28;19960;-71
2022/06/07 14:27:31;;;;;;;;;;;28.10;91.40;;;;;;4959116;28;19964;-72
2022/06/07 14:29:59;;;;;;;;;;;28.60;90.30;;;;;;4955917;29;19969;-71
2022/06/07 14:32:28;;;;;;;;;;;28.60;89.70;;;;;;4955514;28;20063;-71
2022/06/07 14:34:57;;;;;;;;;;;28.20;90.30;;;;;;4954647;28;19974;-71
2022/06/07 14:37:27;;;;;;;;;;;28.40;89.40;;;;;;4954719;28;20349;-71
2022/06/07 14:39:56;;;;;;;;;;;28.50;90.40;;;;;;4957447;28;20066;-71
2022/06/07 14:42:23;;;;;;;;;;;28.40;89.50;;;;;;4957729;28;20012;-71
2022/06/07 14:44:51;;;;;;;;;;;28.20;90.10;;;;;;4963304;28;20018;-71
2022/06/07 14:47:20;;;;;;;;;;;28.60;90.40;;;;;;4955381;29;20635;-71
2022/06/07 14:49:48;;;;;;;;;;;29.20;90.00;;;;;;4961729;28;20020;-71
2022/06/07 14:52:17;;;;;;;;;;;29.40;90.00;;;;;;4962169;28;20019;-71
2022/06/07 14:54:46;;;;;;;;;;;29.60;89.10;;;;;;4957068;28;20003;-71
2022/06/07 14:57:18;;;;;;;;;;;29.00;90.00;;;;;;4954753;28;19960;-71
2022/06/07 14:59:46;;;;;;;;;;;28.20;90.60;;;;;;4957884;28;20580;-71
2022/06/07 15:02:17;;;;;;;;;;;27.50;91.10;;;;;;4954018;28;20533;-70